Bariloche, Argentina
Current Conditions -  °F | °C
As of 10:00 PM on Sunday 23 Nov 2014 (Local Time) from SAZS Reporting Station
Light Rain Light Rain  
Wind Chill: 36°   Ceiling: 1500
Heat Index: 43°   Visibility: 4mi
Dew Point: 36°   Wind: 13mph
Humidity: 76%   Direction: 270°W
Pressure: 29.85"   Gusts: NA
Location:  41.14°S, 71.32°W
Report Text: SAZS 240100Z 27011KT 7000 -RA BKN015 SCT050 06/02 Q1011
Loading
Personal Weather Stations






























Interactive Weather Map New forecast layout! Learn more

10-Day Weather Forecast

Advertisements
Track Severe Weather on mobile